createdAt,value
2023-03-06T01:12:30.889Z,44.08
2023-03-06T01:13:30.875Z,50.83
2023-03-06T01:14:30.872Z,55.18
2023-03-06T01:15:30.863Z,58.97
2023-03-06T01:16:30.905Z,51.14
2023-03-06T01:17:30.862Z,44.62
2023-03-06T01:18:30.865Z,45.66
2023-03-06T01:19:30.857Z,48.61
2023-03-06T01:20:30.864Z,53.59
2023-03-06T01:21:30.860Z,58.36
2023-03-06T01:22:30.861Z,52.70
2023-03-06T01:23:30.858Z,47.04
2023-03-06T01:24:30.866Z,44.30
2023-03-06T01:25:30.860Z,47.40
2023-03-06T01:26:30.866Z,54.40
2023-03-06T01:27:30.865Z,58.96
2023-03-06T01:28:30.839Z,51.41
2023-03-06T01:29:30.836Z,46.31
2023-03-06T01:30:30.825Z,42.38
2023-03-06T01:31:31.197Z,49.02
2023-03-06T01:32:30.913Z,49.21
2023-03-06T01:33:30.818Z,50.32
2023-03-06T01:34:30.820Z,50.80
2023-03-06T01:35:30.848Z,44.95
2023-03-06T01:36:30.814Z,41.93
2023-03-06T01:37:30.813Z,52.27
2023-03-06T01:38:30.824Z,49.22
2023-03-06T01:39:30.820Z,57.60
2023-03-06T01:40:30.812Z,57.54
2023-03-06T01:41:30.839Z,50.18
2023-03-06T01:42:32.147Z,48.45
2023-03-06T01:43:30.830Z,50.53
2023-03-06T01:44:30.801Z,53.86
2023-03-06T01:45:30.937Z,58.39
2023-03-06T01:46:30.796Z,59.23
2023-03-06T01:47:30.823Z,53.58
2023-03-06T01:48:30.909Z,47.62
2023-03-06T01:49:30.803Z,47.28
2023-03-06T01:50:30.800Z,47.76
2023-03-06T01:51:30.807Z,48.15
2023-03-06T01:52:30.802Z,49.79
2023-03-06T01:53:30.803Z,47.73
2023-03-06T01:54:30.865Z,39.82
2023-03-06T01:55:30.804Z,42.02
2023-03-06T01:56:30.803Z,44.30
2023-03-06T01:57:30.787Z,49.89
2023-03-06T01:58:30.780Z,59.06
2023-03-06T01:59:30.782Z,52.48
2023-03-06T02:00:30.788Z,43.24
2023-03-06T02:01:30.839Z,45.32
2023-03-06T02:02:30.792Z,49.29
2023-03-06T02:03:30.755Z,53.85
2023-03-06T02:04:30.753Z,56.42
2023-03-06T02:05:30.756Z,49.71
2023-03-06T02:06:30.767Z,42.75
2023-03-06T02:07:30.756Z,37.42
2023-03-06T04:34:30.799Z,47.56
2023-03-06T04:44:30.782Z,63.02
2023-03-06T05:20:30.836Z,71.23
2023-03-06T06:48:31.097Z,173.10
2023-03-06T06:51:31.079Z,197.91
2023-03-06T06:53:31.082Z,209.95
2023-03-06T06:57:31.810Z,237.75
2023-03-06T06:58:30.977Z,246.08
2023-03-06T06:59:30.970Z,249.94
2023-03-06T07:00:30.954Z,249.14
2023-03-06T07:01:31.009Z,250.00
2023-03-06T07:02:30.954Z,250.39
2023-03-06T07:03:30.987Z,251.61
2023-03-06T07:04:30.928Z,255.23
2023-03-06T07:05:31.003Z,263.08
2023-03-06T07:06:30.888Z,274.95
2023-03-06T07:07:30.915Z,255.83
2023-03-06T07:08:30.852Z,250.00
2023-03-06T07:09:30.885Z,249.69
2023-03-06T07:10:30.919Z,250.00
2023-03-06T07:11:30.858Z,249.85
2023-03-06T07:12:30.810Z,250.00
2023-03-06T07:13:30.807Z,248.74
2023-03-06T07:14:30.795Z,250.00
2023-03-06T07:15:30.834Z,249.33
2023-03-06T07:16:30.765Z,249.61
2023-03-06T07:17:30.739Z,251.55
2023-03-06T07:18:30.710Z,256.27
2023-03-06T07:19:30.713Z,261.70
2023-03-06T07:20:30.774Z,273.74
2023-03-06T07:21:30.727Z,255.72
2023-03-06T07:22:38.736Z,249.85
2023-03-06T07:23:31.655Z,250.03
2023-03-06T07:24:30.620Z,250.35
2023-03-06T07:25:30.593Z,251.12
2023-03-06T07:26:34.185Z,254.57
2023-03-06T07:27:30.604Z,250.26
2023-03-06T07:28:37.602Z,251.63
2023-03-06T07:29:31.516Z,250.52
2023-03-06T07:30:30.479Z,252.60
2023-03-06T07:31:30.465Z,256.57
2023-03-06T07:32:30.616Z,262.22
2023-03-06T07:33:30.421Z,271.14
2023-03-06T07:34:30.388Z,257.49
2023-03-06T07:35:30.423Z,249.51
2023-03-06T07:36:30.361Z,250.00
2023-03-06T07:37:30.390Z,248.94
2023-03-06T07:38:30.274Z,248.70
2023-03-06T07:39:30.261Z,248.99
2023-03-06T07:40:30.755Z,248.66
2023-03-06T07:41:30.766Z,248.94
2023-03-06T07:42:30.329Z,250.80
2023-03-06T07:43:30.161Z,254.89
2023-03-06T07:44:30.290Z,249.41
2023-03-06T07:45:30.095Z,252.08
2023-03-06T07:46:30.266Z,255.73
2023-03-06T07:47:30.081Z,264.66
2023-03-06T07:48:30.042Z,271.67
2023-03-06T07:49:30.025Z,254.88
2023-03-06T07:50:29.981Z,250.00
2023-03-06T07:51:29.961Z,245.34
2023-03-06T07:52:29.927Z,241.19
2023-03-06T07:53:29.917Z,240.56
2023-03-06T07:54:29.962Z,240.58
2023-03-06T07:55:29.871Z,241.45
2023-03-06T07:56:29.812Z,243.63
2023-03-06T07:57:29.776Z,242.06
2023-03-06T07:58:29.947Z,237.25
2023-03-06T07:59:29.744Z,235.95
2023-03-06T08:00:30.283Z,236.76
2023-03-06T08:01:29.657Z,246.71
2023-03-06T08:02:29.696Z,246.93
2023-03-06T08:03:29.628Z,239.86
2023-03-06T08:04:30.269Z,240.55
2023-03-06T08:05:29.600Z,238.57
2023-03-06T08:06:29.554Z,242.39
2023-03-06T08:07:29.541Z,248.88
2023-03-06T08:08:29.455Z,248.34
2023-03-06T08:09:29.431Z,243.14
2023-03-06T08:10:29.401Z,233.73
2023-03-06T08:11:29.344Z,235.32
2023-03-06T08:12:29.372Z,244.51
2023-03-06T08:13:29.312Z,247.23
2023-03-06T08:14:29.432Z,244.46
2023-03-06T08:15:29.243Z,236.38
2023-03-06T08:16:29.241Z,232.82
2023-03-06T08:17:29.159Z,230.63
2023-03-06T08:18:29.173Z,240.26
2023-03-06T08:19:29.101Z,245.65
2023-03-06T08:20:29.069Z,240.60
2023-03-06T08:21:29.061Z,236.02
2023-03-06T08:22:29.025Z,233.63
2023-03-06T08:23:29.040Z,233.68
2023-03-06T08:24:28.973Z,235.22
2023-03-06T08:25:28.952Z,237.44
2023-03-06T08:26:28.903Z,239.78
2023-03-06T08:27:28.896Z,235.96
2023-03-06T08:28:28.845Z,229.41
2023-03-06T08:29:29.292Z,234.02
2023-03-06T08:30:28.782Z,242.71
2023-03-06T08:31:28.864Z,246.31
2023-03-06T08:32:28.728Z,241.38
2023-03-06T08:33:28.698Z,232.92
2023-03-06T08:34:28.679Z,231.01
2023-03-06T08:35:28.646Z,231.35
2023-03-06T08:36:28.578Z,233.50
2023-03-06T08:37:28.613Z,235.37
2023-03-06T08:38:28.546Z,231.39
2023-03-06T08:39:28.623Z,232.20
2023-03-06T08:40:28.483Z,233.51
2023-03-06T08:41:28.466Z,238.65
2023-03-06T08:42:28.485Z,249.29
2023-03-06T08:43:28.381Z,248.18
2023-03-06T08:44:28.330Z,241.78
2023-03-06T08:45:28.297Z,234.84
2023-03-06T08:46:28.798Z,229.08
2023-03-06T08:47:28.216Z,237.72
2023-03-06T08:48:28.205Z,244.51
2023-03-06T08:49:28.209Z,243.79
2023-03-06T08:50:28.119Z,241.40
2023-03-06T08:51:28.157Z,230.59
2023-03-06T08:52:28.092Z,225.49
2023-03-06T08:53:42.122Z,236.50
2023-03-06T08:54:29.054Z,243.80
2023-03-06T08:55:28.008Z,243.66
2023-03-06T08:56:27.955Z,235.42
2023-03-06T08:57:27.924Z,225.82
2023-03-06T08:58:27.864Z,223.58
2023-03-06T08:59:27.874Z,233.51
2023-03-06T09:00:27.882Z,238.74
2023-03-06T09:01:27.842Z,234.81
2023-03-06T09:02:27.883Z,229.02
2023-03-06T09:03:27.745Z,225.38
2023-03-06T09:04:27.716Z,222.34
2023-03-06T09:05:27.640Z,234.53
2023-03-06T09:06:27.604Z,238.49
2023-03-06T09:07:27.557Z,244.14
2023-03-06T09:08:27.531Z,244.56
2023-03-06T09:09:27.622Z,233.38
2023-03-06T09:10:27.501Z,233.41
2023-03-06T09:11:27.452Z,241.06
2023-03-06T09:12:29.278Z,241.56
2023-03-06T09:13:27.377Z,242.98
2023-03-06T09:14:27.473Z,227.09
2023-03-06T09:15:27.278Z,223.31
2023-03-06T09:16:27.296Z,222.59
2023-03-06T09:17:27.329Z,232.64
2023-03-06T09:18:27.202Z,232.82
2023-03-06T09:19:27.151Z,233.24
2023-03-06T09:20:27.142Z,222.79
2023-03-06T09:21:27.162Z,218.94
2023-03-06T09:22:27.073Z,224.65
2023-03-06T09:23:27.049Z,228.02
2023-03-06T09:24:27.372Z,230.79
2023-03-06T09:25:26.922Z,225.14
2023-03-06T09:26:39.581Z,219.40
2023-03-06T09:27:27.936Z,217.67
2023-03-06T09:28:27.911Z,216.64
2023-03-06T09:29:27.294Z,223.01
2023-03-06T09:30:26.756Z,223.41
2023-03-06T09:31:26.729Z,221.84
2023-03-06T09:32:26.712Z,211.81
2023-03-06T09:33:26.660Z,208.46
2023-03-06T09:34:26.621Z,209.23
2023-03-06T09:35:26.612Z,216.84
2023-03-06T09:36:26.562Z,215.68
2023-03-06T09:37:26.619Z,208.46
2023-03-06T09:38:26.510Z,202.74
2023-03-06T09:39:26.487Z,196.21
2023-03-06T09:40:26.403Z,199.79
2023-03-06T09:41:26.407Z,206.44
2023-03-06T10:06:25.606Z,154.35
2023-03-06T10:07:25.572Z,150.32
2023-03-06T10:08:25.626Z,138.34
2023-03-06T10:09:25.606Z,140.39
2023-03-06T10:10:25.525Z,149.92
2023-03-06T10:11:25.485Z,148.98
2023-03-06T10:12:25.451Z,144.37
2023-03-06T10:13:25.424Z,139.26
2023-03-06T10:14:25.447Z,130.94
2023-03-06T10:15:25.444Z,135.80
2023-03-06T10:16:25.363Z,143.91
2023-03-06T10:17:25.353Z,137.39
2023-03-06T10:18:25.301Z,132.60
2023-03-06T10:19:25.254Z,131.60
2023-03-06T10:20:25.226Z,124.11
2023-03-06T10:21:25.264Z,130.59
2023-03-06T10:22:25.237Z,134.72
2023-03-06T10:23:25.170Z,127.49
2023-03-06T10:24:25.133Z,125.19
2023-03-06T10:25:25.138Z,117.91
2023-03-06T10:26:25.131Z,118.07
2023-03-06T10:27:25.068Z,119.36
2023-03-06T10:28:25.036Z,120.00
2023-03-06T10:29:25.016Z,120.75
2023-03-06T10:30:24.968Z,120.34
2023-03-06T10:31:25.014Z,121.05
2023-03-06T10:32:24.940Z,122.77
2023-03-06T10:33:24.877Z,123.27
2023-03-06T10:34:24.860Z,121.74
2023-03-06T10:35:24.893Z,116.63
2023-03-06T10:36:24.840Z,111.37
2023-03-06T10:37:24.784Z,115.72
2023-03-06T10:38:24.751Z,121.88
2023-03-06T10:39:24.712Z,123.09
2023-03-06T10:40:24.719Z,120.90
2023-03-06T10:41:24.770Z,115.73
2023-03-06T10:42:24.634Z,110.49
2023-03-06T10:43:24.660Z,117.33
2023-03-06T10:44:24.590Z,121.36
2023-03-06T10:45:24.533Z,121.97
2023-03-06T10:46:24.564Z,120.21
2023-03-06T10:47:24.484Z,123.21
2023-03-06T10:48:24.521Z,125.25
2023-03-06T10:49:24.395Z,130.04
2023-03-06T10:50:24.532Z,130.30
2023-03-06T10:51:24.350Z,131.51
2023-03-06T10:52:24.295Z,131.16
2023-03-06T10:53:24.266Z,129.33
2023-03-06T10:54:24.247Z,136.37
2023-03-06T10:55:24.157Z,143.45
2023-03-06T10:56:24.134Z,145.38
2023-03-06T10:57:24.097Z,134.36
2023-03-06T10:58:24.020Z,137.11
2023-03-06T10:59:23.986Z,143.65
2023-03-06T11:00:23.930Z,151.58
2023-03-06T11:01:23.927Z,155.04
2023-03-06T11:02:23.878Z,150.97
2023-03-06T11:03:23.799Z,151.92
2023-03-06T11:04:23.830Z,156.68
2023-03-06T11:05:23.737Z,158.92
2023-03-06T11:06:23.708Z,163.67
2023-03-06T11:07:23.600Z,163.66
2023-03-06T11:08:23.564Z,164.46
2023-03-06T11:09:23.503Z,166.57
2023-03-06T11:10:23.644Z,166.54
2023-03-06T11:11:36.690Z,170.12
2023-03-06T11:12:24.362Z,169.12
2023-03-06T11:13:23.882Z,169.84
2023-03-06T11:14:23.293Z,169.25
2023-03-06T11:15:23.208Z,167.93
2023-03-06T11:16:25.803Z,164.94
2023-03-06T11:17:23.191Z,168.33
2023-03-06T11:18:23.116Z,166.68
2023-03-06T11:19:23.009Z,166.79
2023-03-06T11:20:22.992Z,166.62
2023-03-06T11:21:22.919Z,162.67
2023-03-06T11:22:22.871Z,158.12
2023-03-06T11:23:22.816Z,159.07
2023-03-06T11:24:22.735Z,155.31
2023-03-06T11:25:22.670Z,158.87
2023-03-06T11:26:22.648Z,157.94
2023-03-06T11:27:22.550Z,161.09
2023-03-06T11:28:22.510Z,160.63
2023-03-06T11:29:22.480Z,160.15
2023-03-06T11:30:22.381Z,162.60
2023-03-06T11:31:22.407Z,166.10
2023-03-06T11:32:22.290Z,168.31
2023-03-06T11:33:22.319Z,165.38
2023-03-06T11:34:22.186Z,165.24
2023-03-06T11:35:22.098Z,168.95
2023-03-06T11:36:22.066Z,167.10
2023-03-06T11:37:22.003Z,162.87
2023-03-06T11:38:21.945Z,156.65
2023-03-06T11:39:21.865Z,162.69
2023-03-06T11:40:21.825Z,163.49
2023-03-06T11:41:21.881Z,161.63
2023-03-06T11:42:21.676Z,159.98
2023-03-06T11:43:21.609Z,158.34
2023-03-06T11:44:21.575Z,155.91
2023-03-06T11:45:21.522Z,155.43
2023-03-06T11:46:21.531Z,153.91
2023-03-06T11:47:21.441Z,154.33
2023-03-06T11:48:21.343Z,154.94
2023-03-06T11:49:21.283Z,161.32
2023-03-06T11:50:21.214Z,177.45
2023-03-06T11:51:21.172Z,177.75
2023-03-06T11:52:21.117Z,169.60
2023-03-06T11:53:21.084Z,167.47
2023-03-06T11:54:21.015Z,167.21
2023-03-06T11:55:20.972Z,168.51
2023-03-06T11:56:20.914Z,161.33
2023-03-06T11:57:20.869Z,156.82
2023-03-06T11:58:20.780Z,156.34
2023-03-06T11:59:20.749Z,153.61
2023-03-06T12:00:20.672Z,161.81
2023-03-06T12:01:21.361Z,157.88
2023-03-06T12:02:20.578Z,157.34
2023-03-06T12:03:20.619Z,156.53
2023-03-06T12:04:20.450Z,154.76
2023-03-06T12:05:20.518Z,151.42
2023-03-06T12:06:20.624Z,154.22
2023-03-06T12:07:20.403Z,154.14
2023-03-06T12:08:20.248Z,152.71
2023-03-06T12:09:20.272Z,150.88
2023-03-06T12:10:20.183Z,152.46
2023-03-06T12:11:20.677Z,147.67
2023-03-06T12:12:20.052Z,149.91
2023-03-06T12:13:20.010Z,151.86
2023-03-06T12:14:19.924Z,151.11
2023-03-06T16:01:11.039Z,87.54
2023-03-06T16:15:10.621Z,60.69
2023-03-06T16:16:10.591Z,65.03
2023-03-06T16:17:10.561Z,73.51
2023-03-06T16:18:10.526Z,72.16
2023-03-06T16:19:14.000Z,69.25
2023-03-06T16:21:10.462Z,62.95
2023-03-06T16:22:10.439Z,70.98
2023-03-06T16:23:10.445Z,73.05
2023-03-06T16:24:10.365Z,69.88
2023-03-06T16:32:10.208Z,66.72
2023-03-06T16:33:10.142Z,72.16
2023-03-06T16:34:11.119Z,69.01
2023-03-06T16:35:10.112Z,63.31
2023-03-06T16:36:10.112Z,61.14
2023-03-06T16:37:10.071Z,62.99
2023-03-06T16:38:10.051Z,66.94
2023-03-06T16:39:10.020Z,74.08
2023-03-06T16:40:10.008Z,65.06
2023-03-06T16:41:11.123Z,59.26
2023-03-06T16:42:09.986Z,55.64
2023-03-06T16:43:09.961Z,62.11
2023-03-06T16:44:09.973Z,70.03
2023-03-06T16:45:09.924Z,64.79
2023-03-06T22:49:01.241Z,63.88
2023-03-06T22:57:01.063Z,61.61
2023-03-06T22:58:01.093Z,65.05
2023-03-06T22:59:01.044Z,65.26
2023-03-06T23:00:01.023Z,64.41
2023-03-06T23:01:01.032Z,63.13
2023-03-06T23:02:00.974Z,63.28
2023-03-06T23:03:00.963Z,63.21
2023-03-06T23:04:00.973Z,61.97
2023-03-06T23:05:00.946Z,60.64
2023-03-06T23:06:00.896Z,61.33
2023-03-06T23:07:00.879Z,60.41
2023-03-06T23:08:00.865Z,61.76
2023-03-06T23:09:00.868Z,61.86
2023-03-06T23:10:00.803Z,57.36
2023-03-06T23:11:00.796Z,58.57
2023-03-06T23:12:00.755Z,61.10
2023-03-06T23:13:00.749Z,58.23
2023-03-06T23:14:00.738Z,58.53
2023-03-06T23:15:00.771Z,61.56
2023-03-06T23:16:00.705Z,60.57
2023-03-06T23:17:00.641Z,57.94
2023-03-06T23:18:00.626Z,60.96
2023-03-06T23:19:00.604Z,61.73
2023-03-06T23:20:00.582Z,61.94
2023-03-06T23:21:00.557Z,59.25
2023-03-06T23:22:00.560Z,59.79
2023-03-06T23:23:00.529Z,58.88
2023-03-06T23:24:00.502Z,58.58
2023-03-06T23:25:00.500Z,58.16
2023-03-06T23:26:00.457Z,56.49
2023-03-06T23:27:00.438Z,58.31
2023-03-06T23:28:00.432Z,57.43
2023-03-06T23:29:00.403Z,58.80
2023-03-06T23:30:00.386Z,58.84
2023-03-06T23:31:00.407Z,59.95
2023-03-06T23:32:00.366Z,58.90
2023-03-06T23:33:00.335Z,58.57
2023-03-06T23:34:00.298Z,57.27
2023-03-06T23:35:00.284Z,55.63
2023-03-06T23:36:00.389Z,57.77
2023-03-06T23:37:00.241Z,57.73
2023-03-06T23:38:00.224Z,61.38
2023-03-06T23:39:00.204Z,58.50
2023-03-06T23:40:00.210Z,58.79
2023-03-06T23:41:00.170Z,60.90
2023-03-06T23:42:00.147Z,62.29
2023-03-06T23:43:00.134Z,55.72
2023-03-06T23:44:00.118Z,56.98
2023-03-06T23:45:00.110Z,59.30
2023-03-06T23:46:00.101Z,57.39
2023-03-06T23:47:00.063Z,59.81
2023-03-06T23:48:00.083Z,59.32
2023-03-06T23:49:00.024Z,55.74
2023-03-06T23:49:59.983Z,58.33
2023-03-06T23:50:59.956Z,59.17
2023-03-06T23:51:59.947Z,59.62
2023-03-06T23:52:59.939Z,59.18
2023-03-06T23:53:59.932Z,56.83
